Time,TemperatureF,DewpointF,PressureIn,WindDirection,WindDirectionDegrees,WindSpeedMPH,WindSpeedGustMPH,Humidity,HourlyPrecipIn,Conditions,Clouds,dailyrainin,SoftwareType,DateUTC
2013-03-17 00:03:00,30.0,24.0,30.12,NW,318,1.0,3.0,79,0.00,,,0.00,,2013-03-17 04:03:00,
2013-03-17 00:12:00,30.0,24.0,30.12,NW,318,1.0,3.0,79,0.00,,,0.00,,2013-03-17 04:12:00,
2013-03-17 00:23:00,30.0,25.0,30.12,North,360,0.0,3.0,80,0.00,,,0.00,,2013-03-17 04:23:00,
2013-03-17 00:32:00,30.0,24.0,30.12,North,355,0.0,2.0,79,0.00,,,0.00,,2013-03-17 04:32:00,
2013-03-17 00:42:00,30.0,24.0,30.12,North,355,0.0,2.0,79,0.00,,,0.00,,2013-03-17 04:42:00,
2013-03-17 00:53:00,30.0,24.0,30.12,NNW,332,0.0,4.0,79,0.00,,,0.00,,2013-03-17 04:53:00,
2013-03-17 01:02:00,30.0,24.0,30.13,WNW,301,1.0,4.0,79,0.00,,,0.00,,2013-03-17 05:02:00,
2013-03-17 01:12:00,30.0,24.0,30.13,WNW,301,1.0,4.0,79,0.00,,,0.00,,2013-03-17 05:12:00,
2013-03-17 01:22:00,30.0,24.0,30.13,NW,305,0.0,4.0,79,0.00,,,0.00,,2013-03-17 05:22:00,
2013-03-17 01:32:00,30.0,25.0,30.13,NNW,336,0.0,3.0,81,0.00,,,0.00,,2013-03-17 05:32:00,
2013-03-17 01:42:00,30.0,25.0,30.13,NNW,336,0.0,3.0,81,0.00,,,0.00,,2013-03-17 05:42:00,
2013-03-17 01:52:00,30.0,25.0,30.13,NNW,348,1.0,3.0,80,0.00,,,0.00,,2013-03-17 05:52:00,
2013-03-17 02:02:00,30.0,24.0,30.13,NW,314,1.0,6.0,79,0.00,,,0.00,,2013-03-17 06:02:00,
2013-03-17 02:12:00,30.0,24.0,30.13,NW,314,1.0,6.0,79,0.00,,,0.00,,2013-03-17 06:12:00,
2013-03-17 02:22:00,30.0,24.0,30.13,NW,304,2.0,7.0,77,0.00,,,0.00,,2013-03-17 06:22:00,
2013-03-17 02:32:00,30.0,24.0,30.13,WNW,292,3.0,8.0,78,0.00,,,0.00,,2013-03-17 06:32:00,
2013-03-17 02:42:00,30.0,24.0,30.13,WNW,292,3.0,8.0,78,0.00,,,0.00,,2013-03-17 06:42:00,
2013-03-17 02:52:00,31.0,25.0,30.13,NNW,332,1.0,5.0,78,0.00,,,0.00,,2013-03-17 06:52:00,
2013-03-17 03:02:00,31.0,25.0,30.13,NNW,337,2.0,6.0,78,0.00,,,0.00,,2013-03-17 07:02:00,
2013-03-17 03:12:00,31.0,25.0,30.13,NNW,337,2.0,6.0,78,0.00,,,0.00,,2013-03-17 07:12:00,
2013-03-17 03:22:00,31.0,25.0,30.13,NW,311,2.0,5.0,78,0.00,,,0.00,,2013-03-17 07:22:00,
2013-03-17 03:32:00,31.0,25.0,30.14,NNW,328,2.0,6.0,78,0.00,,,0.00,,2013-03-17 07:32:00,
2013-03-17 03:42:00,31.0,25.0,30.14,NNW,328,2.0,6.0,78,0.00,,,0.00,,2013-03-17 07:42:00,
2013-03-17 03:52:00,31.0,25.0,30.13,NNW,338,1.0,5.0,78,0.00,,,0.00,,2013-03-17 07:52:00,
2013-03-17 04:02:00,31.0,25.0,30.13,NNW,336,3.0,6.0,79,0.00,,,0.00,,2013-03-17 08:02:00,
2013-03-17 04:13:00,31.0,26.0,30.13,NW,325,2.0,5.0,81,0.00,,,0.00,,2013-03-17 08:13:00,
2013-03-17 04:22:00,31.0,26.0,30.13,NW,325,2.0,5.0,81,0.00,,,0.00,,2013-03-17 08:22:00,
2013-03-17 04:32:00,31.0,26.0,30.13,NW,314,7.0,12.0,82,0.00,,,0.00,,2013-03-17 08:32:00,
2013-03-17 04:42:00,31.0,26.0,30.13,NW,314,7.0,12.0,82,0.00,,,0.00,,2013-03-17 08:42:00,
2013-03-17 04:52:00,31.0,26.0,30.13,NNW,341,6.0,14.0,81,0.00,,,0.00,,2013-03-17 08:52:00,
2013-03-17 05:02:00,31.0,25.0,30.13,NNW,328,5.0,12.0,79,0.00,,,0.00,,2013-03-17 09:02:00,
2013-03-17 05:12:00,31.0,25.0,30.13,NNW,328,5.0,12.0,79,0.00,,,0.00,,2013-03-17 09:12:00,
2013-03-17 05:22:00,31.0,25.0,30.14,NW,322,4.0,15.0,77,0.00,,,0.00,,2013-03-17 09:22:00,
2013-03-17 05:32:00,30.0,23.0,30.13,NNW,332,4.0,11.0,76,0.00,,,0.00,,2013-03-17 09:32:00,
2013-03-17 05:43:00,30.0,23.0,30.13,NNW,332,4.0,11.0,76,0.00,,,0.00,,2013-03-17 09:43:00,
2013-03-17 05:53:00,30.0,23.0,30.13,NNW,335,3.0,8.0,76,0.00,,,0.00,,2013-03-17 09:53:00,
2013-03-17 06:03:00,30.0,23.0,30.13,North,355,2.0,5.0,76,0.00,,,0.00,,2013-03-17 10:03:00,
2013-03-17 06:13:00,30.0,23.0,30.13,North,355,2.0,5.0,76,0.00,,,0.00,,2013-03-17 10:13:00,
2013-03-17 06:23:00,30.0,24.0,30.14,North,351,3.0,9.0,77,0.00,,,0.00,,2013-03-17 10:23:00,
2013-03-17 06:33:00,30.0,23.0,30.14,NNW,341,2.0,6.0,76,0.00,,,0.00,,2013-03-17 10:33:00,
2013-03-17 06:42:00,30.0,23.0,30.14,NNW,341,2.0,6.0,76,0.00,,,0.00,,2013-03-17 10:42:00,
2013-03-17 06:52:00,30.0,24.0,30.14,NNE,13,2.0,9.0,77,0.00,,,0.00,,2013-03-17 10:52:00,
2013-03-17 07:02:00,30.0,23.0,30.16,North,5,4.0,11.0,76,0.00,,,0.00,,2013-03-17 11:02:00,
2013-03-17 07:12:00,30.0,23.0,30.16,North,5,4.0,11.0,76,0.00,,,0.00,,2013-03-17 11:12:00,
2013-03-17 07:22:00,30.0,23.0,30.16,North,5,4.0,11.0,76,0.00,,,0.00,,2013-03-17 11:22:00,
2013-03-17 07:32:00,30.0,22.0,30.18,North,5,2.0,9.0,73,0.00,,,0.00,,2013-03-17 11:32:00,
2013-03-17 07:42:00,30.0,22.0,30.18,North,5,2.0,9.0,73,0.00,,,0.00,,2013-03-17 11:42:00,
2013-03-17 07:52:00,29.0,21.0,30.18,NNE,28,2.0,8.0,73,0.00,,,0.00,,2013-03-17 11:52:00,
2013-03-17 08:02:00,29.0,21.0,30.19,NNE,24,1.0,4.0,73,0.00,,,0.00,,2013-03-17 12:02:00,
2013-03-17 08:12:00,29.0,21.0,30.19,NNE,24,1.0,4.0,73,0.00,,,0.00,,2013-03-17 12:12:00,
2013-03-17 08:22:00,29.0,21.0,30.20,NE,35,1.0,5.0,71,0.00,,,0.00,,2013-03-17 12:22:00,
2013-03-17 08:32:00,29.0,21.0,30.21,NE,56,0.0,3.0,72,0.00,,,0.00,,2013-03-17 12:32:00,
2013-03-17 08:43:00,29.0,21.0,30.21,NE,56,0.0,3.0,72,0.00,,,0.00,,2013-03-17 12:43:00,
2013-03-17 08:52:00,29.0,21.0,30.22,ENE,74,0.0,3.0,73,0.00,,,0.00,,2013-03-17 12:52:00,
2013-03-17 09:02:00,29.0,21.0,30.22,ENE,68,0.0,4.0,73,0.00,,,0.00,,2013-03-17 13:02:00,
2013-03-17 09:12:00,29.0,21.0,30.22,ENE,68,0.0,4.0,73,0.00,,,0.00,,2013-03-17 13:12:00,
2013-03-17 09:22:00,29.0,21.0,30.22,NE,42,2.0,5.0,72,0.00,,,0.00,,2013-03-17 13:22:00,
2013-03-17 09:32:00,30.0,22.0,30.23,NE,42,1.0,6.0,71,0.00,,,0.00,,2013-03-17 13:32:00,
2013-03-17 09:42:00,30.0,22.0,30.23,NE,42,1.0,6.0,71,0.00,,,0.00,,2013-03-17 13:42:00,
2013-03-17 09:52:00,30.0,21.0,30.23,ENE,74,1.0,5.0,69,0.00,,,0.00,,2013-03-17 13:52:00,
2013-03-17 10:02:00,30.0,21.0,30.23,NE,53,2.0,7.0,70,0.00,,,0.00,,2013-03-17 14:02:00,
2013-03-17 10:12:00,30.0,21.0,30.23,NE,53,2.0,7.0,70,0.00,,,0.00,,2013-03-17 14:12:00,
2013-03-17 10:22:00,30.0,20.0,30.23,NE,48,3.0,10.0,66,0.00,,,0.00,,2013-03-17 14:22:00,
2013-03-17 10:32:00,31.0,21.0,30.23,NNE,32,3.0,10.0,67,0.00,,,0.00,,2013-03-17 14:32:00,
2013-03-17 10:42:00,31.0,21.0,30.23,NNE,32,3.0,10.0,67,0.00,,,0.00,,2013-03-17 14:42:00,
2013-03-17 10:52:00,31.0,20.0,30.23,ENE,74,3.0,10.0,64,0.00,,,0.00,,2013-03-17 14:52:00,
2013-03-17 11:02:00,31.0,21.0,30.23,NE,56,4.0,10.0,65,0.00,,,0.00,,2013-03-17 15:02:00,
2013-03-17 11:12:00,31.0,21.0,30.23,NE,56,4.0,10.0,65,0.00,,,0.00,,2013-03-17 15:12:00,
2013-03-17 11:23:00,31.0,21.0,30.23,ESE,112,1.0,7.0,67,0.00,,,0.00,,2013-03-17 15:23:00,
2013-03-17 11:33:00,31.0,21.0,30.23,ESE,112,2.0,10.0,66,0.00,,,0.00,,2013-03-17 15:33:00,
2013-03-17 11:42:00,31.0,21.0,30.23,ESE,112,2.0,10.0,66,0.00,,,0.00,,2013-03-17 15:42:00,
2013-03-17 11:52:00,32.0,22.0,30.24,NNE,32,3.0,8.0,67,0.00,,,0.00,,2013-03-17 15:52:00,
2013-03-17 12:03:00,32.0,22.0,30.23,SE,127,4.0,9.0,67,0.00,,,0.00,,2013-03-17 16:03:00,
2013-03-17 12:12:00,32.0,22.0,30.23,SE,127,4.0,9.0,67,0.00,,,0.00,,2013-03-17 16:12:00,
2013-03-17 12:23:00,32.0,23.0,30.23,East,87,3.0,10.0,69,0.00,,,0.00,,2013-03-17 16:23:00,
2013-03-17 12:33:00,32.0,23.0,30.23,East,87,3.0,10.0,69,0.00,,,0.00,,2013-03-17 16:33:00,
2013-03-17 12:42:00,32.0,23.0,30.23,East,87,3.0,10.0,69,0.00,,,0.00,,2013-03-17 16:42:00,
2013-03-17 12:52:00,32.0,23.0,30.24,ENE,77,3.0,8.0,68,0.00,,,0.00,,2013-03-17 16:52:00,
2013-03-17 13:02:00,32.0,22.0,30.24,East,80,4.0,8.0,66,0.00,,,0.00,,2013-03-17 17:02:00,
2013-03-17 13:12:00,32.0,22.0,30.24,East,80,4.0,8.0,66,0.00,,,0.00,,2013-03-17 17:12:00,
2013-03-17 13:22:00,32.0,23.0,30.24,ENE,63,4.0,10.0,69,0.00,,,0.00,,2013-03-17 17:22:00,
2013-03-17 13:33:00,33.0,24.0,30.23,SE,126,1.0,10.0,70,0.00,,,0.00,,2013-03-17 17:33:00,
2013-03-17 13:42:00,33.0,24.0,30.23,SE,126,1.0,10.0,70,0.00,,,0.00,,2013-03-17 17:42:00,
2013-03-17 13:52:00,34.0,24.0,30.23,ENE,73,3.0,10.0,66,0.00,,,0.00,,2013-03-17 17:52:00,
2013-03-17 14:02:00,34.0,24.0,30.23,ESE,123,4.0,10.0,66,0.00,,,0.00,,2013-03-17 18:02:00,
2013-03-17 14:12:00,34.0,24.0,30.23,ESE,123,4.0,10.0,66,0.00,,,0.00,,2013-03-17 18:12:00,
2013-03-17 14:22:00,34.0,25.0,30.23,ESE,118,2.0,9.0,68,0.00,,,0.00,,2013-03-17 18:22:00,
2013-03-17 14:32:00,34.0,23.0,30.23,ESE,120,4.0,8.0,65,0.00,,,0.00,,2013-03-17 18:32:00,
2013-03-17 14:42:00,34.0,23.0,30.23,ESE,120,4.0,8.0,65,0.00,,,0.00,,2013-03-17 18:42:00,
2013-03-17 14:52:00,34.0,23.0,30.22,SE,126,2.0,9.0,63,0.00,,,0.00,,2013-03-17 18:52:00,
2013-03-17 15:02:00,35.0,24.0,30.22,ESE,108,3.0,10.0,65,0.00,,,0.00,,2013-03-17 19:02:00,
2013-03-17 15:12:00,35.0,24.0,30.22,ESE,108,3.0,10.0,65,0.00,,,0.00,,2013-03-17 19:12:00,
2013-03-17 15:22:00,35.0,24.0,30.21,NE,55,3.0,6.0,64,0.00,,,0.00,,2013-03-17 19:22:00,
2013-03-17 15:33:00,36.0,25.0,30.20,SE,143,3.0,8.0,63,0.00,,,0.00,,2013-03-17 19:33:00,
2013-03-17 15:42:00,36.0,25.0,30.20,SE,143,3.0,8.0,63,0.00,,,0.00,,2013-03-17 19:42:00,
2013-03-17 15:53:00,36.0,25.0,30.19,NE,36,4.0,9.0,63,0.00,,,0.00,,2013-03-17 19:53:00,
2013-03-17 16:02:00,36.0,25.0,30.18,SE,138,4.0,8.0,65,0.00,,,0.00,,2013-03-17 20:02:00,
2013-03-17 16:12:00,36.0,25.0,30.18,SE,138,4.0,8.0,65,0.00,,,0.00,,2013-03-17 20:12:00,
2013-03-17 16:22:00,36.0,23.0,30.18,ESE,115,6.0,12.0,59,0.00,,,0.00,,2013-03-17 20:22:00,
2013-03-17 16:33:00,37.0,26.0,30.17,ENE,62,3.0,8.0,64,0.00,,,0.00,,2013-03-17 20:33:00,
2013-03-17 16:42:00,37.0,26.0,30.17,ENE,62,3.0,8.0,64,0.00,,,0.00,,2013-03-17 20:42:00,
2013-03-17 16:52:00,37.0,24.0,30.16,SE,131,4.0,11.0,58,0.00,,,0.00,,2013-03-17 20:52:00,
2013-03-17 17:03:00,37.0,24.0,30.16,SE,131,4.0,11.0,58,0.00,,,0.00,,2013-03-17 21:03:00,
2013-03-17 17:12:00,37.0,24.0,30.16,SE,131,4.0,11.0,58,0.00,,,0.00,,2013-03-17 21:12:00,
2013-03-17 17:22:00,37.0,25.0,30.16,SE,138,5.0,12.0,62,0.00,,,0.00,,2013-03-17 21:22:00,
2013-03-17 17:33:00,37.0,26.0,30.15,SE,128,5.0,12.0,63,0.00,,,0.00,,2013-03-17 21:33:00,
2013-03-17 17:43:00,37.0,26.0,30.15,SE,128,5.0,12.0,63,0.00,,,0.00,,2013-03-17 21:43:00,
2013-03-17 17:52:00,37.0,24.0,30.15,SSE,157,5.0,10.0,60,0.00,,,0.00,,2013-03-17 21:52:00,
2013-03-17 18:03:00,37.0,25.0,30.14,SE,142,6.0,10.0,61,0.00,,,0.00,,2013-03-17 22:03:00,
2013-03-17 18:12:00,37.0,25.0,30.14,SE,128,7.0,13.0,61,0.00,,,0.00,,2013-03-17 22:12:00,
2013-03-17 18:23:00,37.0,25.0,30.14,SE,128,7.0,13.0,61,0.00,,,0.00,,2013-03-17 22:23:00,
2013-03-17 18:33:00,37.0,25.0,30.14,SE,140,4.0,11.0,61,0.00,,,0.00,,2013-03-17 22:33:00,
2013-03-17 18:42:00,37.0,25.0,30.14,SE,140,4.0,11.0,61,0.00,,,0.00,,2013-03-17 22:42:00,
2013-03-17 18:52:00,36.0,23.0,30.13,ESE,123,3.0,10.0,59,0.00,,,0.00,,2013-03-17 22:52:00,
2013-03-17 19:02:00,36.0,23.0,30.14,ESE,116,4.0,11.0,59,0.00,,,0.00,,2013-03-17 23:02:00,
2013-03-17 19:12:00,36.0,23.0,30.14,ESE,116,4.0,11.0,59,0.00,,,0.00,,2013-03-17 23:12:00,
2013-03-17 19:22:00,36.0,24.0,30.14,SSE,157,3.0,11.0,62,0.00,,,0.00,,2013-03-17 23:22:00,
2013-03-17 19:33:00,35.0,24.0,30.15,SSE,157,2.0,13.0,63,0.00,,,0.00,,2013-03-17 23:33:00,
2013-03-17 19:42:00,35.0,24.0,30.15,SSE,157,2.0,13.0,63,0.00,,,0.00,,2013-03-17 23:42:00,
2013-03-17 19:52:00,35.0,24.0,30.15,ESE,103,4.0,8.0,63,0.00,,,0.00,,2013-03-17 23:52:00,
2013-03-17 20:03:00,34.0,23.0,30.16,ESE,112,4.0,9.0,63,0.00,,,0.00,,2013-03-18 00:03:00,
2013-03-17 20:12:00,34.0,23.0,30.16,ESE,112,4.0,9.0,63,0.00,,,0.00,,2013-03-18 00:12:00,
2013-03-17 20:22:00,34.0,24.0,30.16,ESE,122,2.0,10.0,66,0.00,,,0.00,,2013-03-18 00:22:00,
2013-03-17 20:33:00,33.0,23.0,30.16,SE,142,5.0,10.0,67,0.00,,,0.00,,2013-03-18 00:33:00,
2013-03-17 20:42:00,33.0,23.0,30.16,SE,142,5.0,10.0,67,0.00,,,0.00,,2013-03-18 00:42:00,
2013-03-17 20:52:00,33.0,24.0,30.16,SE,134,5.0,12.0,70,0.00,,,0.00,,2013-03-18 00:52:00,
2013-03-17 21:02:00,32.0,23.0,30.15,ESE,111,4.0,12.0,70,0.00,,,0.00,,2013-03-18 01:02:00,
2013-03-17 21:12:00,32.0,23.0,30.15,ESE,111,4.0,12.0,70,0.00,,,0.00,,2013-03-18 01:12:00,
2013-03-17 21:22:00,32.0,24.0,30.15,ENE,76,3.0,12.0,71,0.00,,,0.00,,2013-03-18 01:22:00,
2013-03-17 21:32:00,31.0,23.0,30.15,ESE,121,3.0,12.0,72,0.00,,,0.00,,2013-03-18 01:32:00,
2013-03-17 21:42:00,31.0,23.0,30.15,ESE,121,3.0,12.0,72,0.00,,,0.00,,2013-03-18 01:42:00,
2013-03-17 21:52:00,31.0,23.0,30.14,ESE,119,4.0,9.0,71,0.00,,,0.00,,2013-03-18 01:52:00,
2013-03-17 22:02:00,31.0,23.0,30.13,ESE,117,3.0,11.0,71,0.00,,,0.00,,2013-03-18 02:02:00,
2013-03-17 22:12:00,31.0,23.0,30.13,ESE,117,3.0,11.0,71,0.00,,,0.00,,2013-03-18 02:12:00,
2013-03-17 22:22:00,31.0,23.0,30.12,ESE,116,3.0,11.0,71,0.00,,,0.00,,2013-03-18 02:22:00,
2013-03-17 22:32:00,31.0,23.0,30.12,East,97,6.0,16.0,71,0.00,,,0.00,,2013-03-18 02:32:00,
2013-03-17 22:42:00,31.0,23.0,30.12,East,97,6.0,16.0,71,0.00,,,0.00,,2013-03-18 02:42:00,
2013-03-17 22:52:00,31.0,23.0,30.12,SE,138,2.0,12.0,73,0.00,,,0.00,,2013-03-18 02:52:00,
2013-03-17 23:03:00,30.0,22.0,30.12,ESE,119,4.0,12.0,73,0.00,,,0.00,,2013-03-18 03:03:00,
2013-03-17 23:11:00,30.0,22.0,30.12,ESE,119,4.0,12.0,73,0.00,,,0.00,,2013-03-18 03:11:00,
2013-03-17 23:22:00,30.0,23.0,30.12,East,84,2.0,13.0,75,0.00,,,0.00,,2013-03-18 03:22:00,
2013-03-17 23:33:00,30.0,23.0,30.11,ESE,104,5.0,13.0,75,0.00,,,0.00,,2013-03-18 03:33:00,
2013-03-17 23:42:00,30.0,23.0,30.11,ESE,104,5.0,13.0,75,0.00,,,0.00,,2013-03-18 03:42:00,
2013-03-17 23:53:00,29.0,22.0,30.10,ESE,115,4.0,12.0,74,0.00,,,0.00,,2013-03-18 03:53:00,